createdAt,value
2018-01-29T00:00:04.493Z,46
2018-01-29T00:15:04.594Z,48
2018-01-29T00:30:05.302Z,46
2018-01-29T00:45:04.796Z,44
2018-01-29T01:00:05.183Z,45
2018-01-29T01:15:04.634Z,46
2018-01-29T01:30:05.207Z,45
2018-01-29T01:45:04.829Z,44
2018-01-29T02:00:05.562Z,45
2018-01-29T02:15:04.864Z,45
2018-01-29T02:30:04.533Z,45
2018-01-29T02:45:04.664Z,45
2018-01-29T03:00:05.338Z,44
2018-01-29T03:15:05.114Z,45
2018-01-29T03:30:04.951Z,46
2018-01-29T03:45:04.404Z,46
2018-01-29T04:00:05.182Z,45
2018-01-29T04:15:05.055Z,45
2018-01-29T04:30:07.732Z,46
2018-01-29T04:45:04.628Z,48
2018-01-29T05:00:05.512Z,49
2018-01-29T05:15:15.259Z,47
2018-01-29T05:30:05.655Z,47
2018-01-29T05:45:04.560Z,50
2018-01-29T06:00:07.645Z,50
2018-01-29T06:15:05.639Z,52
2018-01-29T06:30:05.104Z,60
2018-01-29T06:45:04.513Z,51
2018-01-29T07:00:04.975Z,53
2018-01-29T07:15:04.431Z,51
2018-01-29T07:30:04.611Z,49
2018-01-29T07:45:05.044Z,51
2018-01-29T08:00:04.539Z,51
2018-01-29T08:15:07.475Z,50
2018-01-29T08:30:05.064Z,53
2018-01-29T08:45:04.593Z,49
2018-01-29T09:00:05.079Z,50
2018-01-29T09:15:05.002Z,50
2018-01-29T09:30:05.198Z,56
2018-01-29T09:45:04.629Z,53
2018-01-29T10:00:05.590Z,51
2018-01-29T10:15:06.045Z,51
2018-01-29T10:30:04.657Z,50
2018-01-29T10:45:05.047Z,49
2018-01-29T11:00:04.431Z,50
2018-01-29T11:15:04.807Z,50
2018-01-29T11:30:04.909Z,51
2018-01-29T11:45:12.457Z,50
2018-01-29T12:00:05.047Z,50
2018-01-29T12:15:06.003Z,50
2018-01-29T12:30:07.585Z,50
2018-01-29T12:45:05.550Z,50
2018-01-29T13:00:04.942Z,50
2018-01-29T13:15:04.383Z,51
2018-01-29T13:30:05.089Z,49
2018-01-29T13:45:04.565Z,51
2018-01-29T14:00:06.014Z,49
2018-01-29T14:15:04.509Z,50
2018-01-29T14:30:05.095Z,49
2018-01-29T14:45:04.607Z,48
2018-01-29T15:00:04.500Z,49
2018-01-29T15:15:04.430Z,49
2018-01-29T15:30:05.094Z,48
2018-01-29T15:45:04.426Z,49
2018-01-29T16:00:04.821Z,51
2018-01-29T16:15:04.742Z,50
2018-01-29T16:30:04.501Z,61
2018-01-29T16:45:04.840Z,53
2018-01-29T17:00:04.747Z,54
2018-01-29T17:15:05.259Z,47
2018-01-29T17:30:05.057Z,47
2018-01-29T17:45:05.746Z,47
2018-01-29T18:00:05.494Z,46
2018-01-29T18:15:05.945Z,47
2018-01-29T18:30:08.022Z,47
2018-01-29T18:45:04.380Z,48
2018-01-29T19:00:04.870Z,49
2018-01-29T19:15:05.413Z,47
2018-01-29T19:30:04.593Z,48
2018-01-29T19:45:04.491Z,49
2018-01-29T20:00:04.450Z,48
2018-01-29T20:15:04.422Z,48
2018-01-29T20:30:04.546Z,48
2018-01-29T20:45:05.050Z,47
2018-01-29T21:00:04.398Z,47
2018-01-29T21:15:04.886Z,47
2018-01-29T21:30:05.293Z,48
2018-01-29T21:45:04.795Z,49
2018-01-29T22:00:05.380Z,48
2018-01-29T22:15:05.099Z,47
2018-01-29T22:30:04.815Z,48
2018-01-29T22:45:05.225Z,48
2018-01-29T23:00:04.685Z,47
2018-01-29T23:15:05.383Z,47
2018-01-29T23:30:05.075Z,48
2018-01-29T23:45:04.575Z,48
